sensor_id;sensor_type;location;lat;lon;timestamp;P1;durP1;ratioP1;P2;durP2;ratioP2
22332;SDS011;11334;36.986;-121.936;2023-03-14T00:02:13;6.13;;;1.17;;
22332;SDS011;11334;36.986;-121.936;2023-03-14T00:04:39;4.40;;;0.70;;
22332;SDS011;11334;36.986;-121.936;2023-03-14T00:07:05;3.10;;;0.60;;
22332;SDS011;11334;36.986;-121.936;2023-03-14T00:09:31;5.38;;;1.00;;
22332;SDS011;11334;36.986;-121.936;2023-03-14T00:11:58;5.28;;;0.77;;
22332;SDS011;11334;36.986;-121.936;2023-03-14T00:14:24;8.82;;;0.90;;
22332;SDS011;11334;36.986;-121.936;2023-03-14T00:16:50;1.30;;;0.65;;
22332;SDS011;11334;36.986;-121.936;2023-03-14T00:19:16;1.55;;;0.80;;
22332;SDS011;11334;36.986;-121.936;2023-03-14T00:21:43;5.25;;;0.90;;
22332;SDS011;11334;36.986;-121.936;2023-03-14T00:24:09;3.47;;;1.10;;
22332;SDS011;11334;36.986;-121.936;2023-03-14T00:26:35;4.05;;;1.02;;
22332;SDS011;11334;36.986;-121.936;2023-03-14T00:29:01;6.57;;;1.30;;
22332;SDS011;11334;36.986;-121.936;2023-03-14T00:31:28;6.40;;;1.17;;
22332;SDS011;11334;36.986;-121.936;2023-03-14T00:33:54;2.35;;;1.02;;
22332;SDS011;11334;36.986;-121.936;2023-03-14T00:36:20;3.85;;;0.80;;
22332;SDS011;11334;36.986;-121.936;2023-03-14T00:38:49;3.22;;;0.50;;
22332;SDS011;11334;36.986;-121.936;2023-03-14T00:41:22;4.03;;;1.50;;
22332;SDS011;11334;36.986;-121.936;2023-03-14T00:43:49;1.55;;;0.70;;
22332;SDS011;11334;36.986;-121.936;2023-03-14T00:46:16;1.92;;;0.88;;
22332;SDS011;11334;36.986;-121.936;2023-03-14T00:48:46;2.55;;;0.70;;
22332;SDS011;11334;36.986;-121.936;2023-03-14T00:51:12;1.83;;;0.90;;
22332;SDS011;11334;36.986;-121.936;2023-03-14T00:53:40;5.45;;;0.68;;
22332;SDS011;11334;36.986;-121.936;2023-03-14T00:56:09;4.18;;;1.00;;
22332;SDS011;11334;36.986;-121.936;2023-03-14T00:58:37;3.42;;;0.85;;
22332;SDS011;11334;36.986;-121.936;2023-03-14T01:03:35;1.65;;;0.90;;
22332;SDS011;11334;36.986;-121.936;2023-03-14T01:06:09;1.63;;;0.50;;
22332;SDS011;11334;36.986;-121.936;2023-03-14T01:08:37;1.30;;;0.75;;
22332;SDS011;11334;36.986;-121.936;2023-03-14T01:11:07;3.13;;;0.70;;
22332;SDS011;11334;36.986;-121.936;2023-03-14T01:13:35;4.43;;;0.80;;
22332;SDS011;11334;36.986;-121.936;2023-03-14T01:16:02;4.38;;;0.90;;
22332;SDS011;11334;36.986;-121.936;2023-03-14T01:18:32;3.35;;;1.30;;
22332;SDS011;11334;36.986;-121.936;2023-03-14T01:21:00;3.70;;;0.85;;
22332;SDS011;11334;36.986;-121.936;2023-03-14T01:23:27;2.80;;;0.88;;
22332;SDS011;11334;36.986;-121.936;2023-03-14T01:25:54;4.70;;;1.20;;
22332;SDS011;11334;36.986;-121.936;2023-03-14T01:28:20;2.72;;;0.98;;
22332;SDS011;11334;36.986;-121.936;2023-03-14T01:30:46;5.63;;;1.00;;
22332;SDS011;11334;36.986;-121.936;2023-03-14T01:33:12;3.78;;;0.93;;
22332;SDS011;11334;36.986;-121.936;2023-03-14T01:35:40;3.00;;;1.00;;
22332;SDS011;11334;36.986;-121.936;2023-03-14T01:38:06;3.00;;;1.45;;
22332;SDS011;11334;36.986;-121.936;2023-03-14T01:40:32;2.72;;;1.25;;
22332;SDS011;11334;36.986;-121.936;2023-03-14T01:43:05;4.97;;;1.00;;
22332;SDS011;11334;36.986;-121.936;2023-03-14T01:48:42;4.22;;;0.90;;
22332;SDS011;11334;36.986;-121.936;2023-03-14T01:51:29;3.05;;;1.02;;
22332;SDS011;11334;36.986;-121.936;2023-03-14T01:54:05;5.68;;;1.05;;
22332;SDS011;11334;36.986;-121.936;2023-03-14T01:56:42;4.70;;;1.88;;
22332;SDS011;11334;36.986;-121.936;2023-03-14T01:59:13;2.15;;;0.65;;
22332;SDS011;11334;36.986;-121.936;2023-03-14T02:01:40;2.72;;;1.10;;
22332;SDS011;11334;36.986;-121.936;2023-03-14T02:04:09;4.07;;;1.10;;
22332;SDS011;11334;36.986;-121.936;2023-03-14T02:06:40;4.97;;;1.58;;
22332;SDS011;11334;36.986;-121.936;2023-03-14T02:09:14;3.45;;;1.23;;
22332;SDS011;11334;36.986;-121.936;2023-03-14T02:11:44;2.65;;;1.08;;
22332;SDS011;11334;36.986;-121.936;2023-03-14T02:14:13;4.57;;;1.27;;
22332;SDS011;11334;36.986;-121.936;2023-03-14T02:16:48;3.08;;;0.95;;
22332;SDS011;11334;36.986;-121.936;2023-03-14T02:19:14;3.28;;;0.80;;
22332;SDS011;11334;36.986;-121.936;2023-03-14T02:22:27;1.73;;;0.88;;
22332;SDS011;11334;36.986;-121.936;2023-03-14T02:27:41;3.13;;;0.82;;
22332;SDS011;11334;36.986;-121.936;2023-03-14T02:30:17;3.25;;;1.30;;
22332;SDS011;11334;36.986;-121.936;2023-03-14T02:32:58;2.42;;;0.90;;
22332;SDS011;11334;36.986;-121.936;2023-03-14T02:35:43;3.70;;;1.13;;
22332;SDS011;11334;36.986;-121.936;2023-03-14T02:38:21;4.38;;;0.80;;
22332;SDS011;11334;36.986;-121.936;2023-03-14T02:41:00;2.15;;;0.70;;
22332;SDS011;11334;36.986;-121.936;2023-03-14T02:43:27;2.20;;;0.90;;
22332;SDS011;11334;36.986;-121.936;2023-03-14T02:45:53;3.17;;;0.90;;
22332;SDS011;11334;36.986;-121.936;2023-03-14T02:48:24;2.67;;;1.00;;
22332;SDS011;11334;36.986;-121.936;2023-03-14T02:50:52;4.85;;;0.90;;
22332;SDS011;11334;36.986;-121.936;2023-03-14T02:53:21;3.70;;;0.95;;
22332;SDS011;11334;36.986;-121.936;2023-03-14T02:55:51;2.92;;;0.95;;
22332;SDS011;11334;36.986;-121.936;2023-03-14T02:58:19;5.47;;;1.45;;
22332;SDS011;11334;36.986;-121.936;2023-03-14T03:00:45;2.40;;;0.90;;
22332;SDS011;11334;36.986;-121.936;2023-03-14T03:03:12;3.00;;;0.70;;
22332;SDS011;11334;36.986;-121.936;2023-03-14T03:05:38;1.55;;;0.90;;
22332;SDS011;11334;36.986;-121.936;2023-03-14T03:08:04;3.00;;;1.30;;
22332;SDS011;11334;36.986;-121.936;2023-03-14T03:10:34;3.78;;;1.20;;
22332;SDS011;11334;36.986;-121.936;2023-03-14T03:13:00;2.85;;;1.40;;
22332;SDS011;11334;36.986;-121.936;2023-03-14T03:15:28;3.15;;;1.45;;
22332;SDS011;11334;36.986;-121.936;2023-03-14T03:17:54;2.38;;;0.90;;
22332;SDS011;11334;36.986;-121.936;2023-03-14T03:20:20;1.98;;;0.93;;
22332;SDS011;11334;36.986;-121.936;2023-03-14T03:22:47;2.47;;;1.10;;
22332;SDS011;11334;36.986;-121.936;2023-03-14T03:25:15;3.53;;;1.13;;
22332;SDS011;11334;36.986;-121.936;2023-03-14T03:27:41;6.50;;;1.40;;
22332;SDS011;11334;36.986;-121.936;2023-03-14T03:30:08;3.13;;;1.10;;
22332;SDS011;11334;36.986;-121.936;2023-03-14T03:32:34;6.43;;;1.27;;
22332;SDS011;11334;36.986;-121.936;2023-03-14T03:35:02;6.13;;;1.85;;
22332;SDS011;11334;36.986;-121.936;2023-03-14T03:37:31;3.25;;;1.40;;
22332;SDS011;11334;36.986;-121.936;2023-03-14T03:39:58;3.08;;;1.45;;
22332;SDS011;11334;36.986;-121.936;2023-03-14T03:42:26;4.78;;;1.13;;
22332;SDS011;11334;36.986;-121.936;2023-03-14T03:44:52;3.53;;;1.02;;
22332;SDS011;11334;36.986;-121.936;2023-03-14T03:47:19;2.50;;;0.90;;
22332;SDS011;11334;36.986;-121.936;2023-03-14T03:49:45;1.45;;;0.82;;
22332;SDS011;11334;36.986;-121.936;2023-03-14T03:52:11;2.20;;;0.80;;
22332;SDS011;11334;36.986;-121.936;2023-03-14T03:54:37;2.25;;;0.90;;
22332;SDS011;11334;36.986;-121.936;2023-03-14T03:57:04;2.22;;;0.93;;
22332;SDS011;11334;36.986;-121.936;2023-03-14T03:59:30;2.30;;;1.10;;
22332;SDS011;11334;36.986;-121.936;2023-03-14T04:01:56;3.60;;;0.95;;
22332;SDS011;11334;36.986;-121.936;2023-03-14T04:04:22;1.13;;;0.80;;
22332;SDS011;11334;36.986;-121.936;2023-03-14T04:06:49;3.90;;;1.20;;
22332;SDS011;11334;36.986;-121.936;2023-03-14T04:09:15;2.33;;;1.10;;
22332;SDS011;11334;36.986;-121.936;2023-03-14T04:11:41;3.05;;;1.10;;
22332;SDS011;11334;36.986;-121.936;2023-03-14T04:14:07;1.05;;;0.90;;
22332;SDS011;11334;36.986;-121.936;2023-03-14T04:16:34;1.50;;;0.77;;
22332;SDS011;11334;36.986;-121.936;2023-03-14T04:19:00;2.30;;;0.80;;
22332;SDS011;11334;36.986;-121.936;2023-03-14T04:21:28;3.00;;;1.00;;
22332;SDS011;11334;36.986;-121.936;2023-03-14T04:23:54;3.55;;;1.10;;
22332;SDS011;11334;36.986;-121.936;2023-03-14T04:26:20;2.17;;;0.93;;
22332;SDS011;11334;36.986;-121.936;2023-03-14T04:28:47;4.40;;;0.73;;
22332;SDS011;11334;36.986;-121.936;2023-03-14T04:31:17;3.95;;;1.00;;
22332;SDS011;11334;36.986;-121.936;2023-03-14T04:33:46;2.30;;;0.98;;
22332;SDS011;11334;36.986;-121.936;2023-03-14T04:36:13;1.92;;;0.80;;
22332;SDS011;11334;36.986;-121.936;2023-03-14T04:38:40;2.25;;;0.75;;
22332;SDS011;11334;36.986;-121.936;2023-03-14T04:41:06;4.38;;;0.82;;
22332;SDS011;11334;36.986;-121.936;2023-03-14T04:43:32;3.03;;;0.88;;
22332;SDS011;11334;36.986;-121.936;2023-03-14T04:45:59;3.00;;;0.88;;
22332;SDS011;11334;36.986;-121.936;2023-03-14T04:48:26;2.08;;;0.70;;
22332;SDS011;11334;36.986;-121.936;2023-03-14T04:50:53;3.00;;;0.70;;
22332;SDS011;11334;36.986;-121.936;2023-03-14T04:53:19;2.45;;;0.85;;
22332;SDS011;11334;36.986;-121.936;2023-03-14T04:55:49;1.60;;;0.82;;
22332;SDS011;11334;36.986;-121.936;2023-03-14T04:58:19;2.38;;;0.63;;
22332;SDS011;11334;36.986;-121.936;2023-03-14T05:00:47;2.00;;;0.77;;
22332;SDS011;11334;36.986;-121.936;2023-03-14T05:03:17;2.63;;;1.00;;
22332;SDS011;11334;36.986;-121.936;2023-03-14T05:05:44;4.00;;;0.70;;
22332;SDS011;11334;36.986;-121.936;2023-03-14T05:08:11;2.70;;;0.82;;
22332;SDS011;11334;36.986;-121.936;2023-03-14T05:10:38;1.27;;;0.70;;
22332;SDS011;11334;36.986;-121.936;2023-03-14T05:13:04;3.63;;;0.95;;
22332;SDS011;11334;36.986;-121.936;2023-03-14T05:15:30;3.30;;;0.77;;
22332;SDS011;11334;36.986;-121.936;2023-03-14T05:17:57;3.08;;;0.98;;
22332;SDS011;11334;36.986;-121.936;2023-03-14T05:20:23;3.28;;;1.00;;
22332;SDS011;11334;36.986;-121.936;2023-03-14T05:22:49;6.82;;;0.82;;
22332;SDS011;11334;36.986;-121.936;2023-03-14T05:25:15;3.70;;;1.40;;
22332;SDS011;11334;36.986;-121.936;2023-03-14T05:27:42;4.40;;;1.00;;
22332;SDS011;11334;36.986;-121.936;2023-03-14T05:30:08;4.60;;;1.05;;
22332;SDS011;11334;36.986;-121.936;2023-03-14T05:32:35;5.10;;;1.08;;
22332;SDS011;11334;36.986;-121.936;2023-03-14T05:35:01;3.67;;;0.70;;
22332;SDS011;11334;36.986;-121.936;2023-03-14T05:37:28;2.45;;;1.10;;
22332;SDS011;11334;36.986;-121.936;2023-03-14T05:39:54;3.33;;;0.93;;
22332;SDS011;11334;36.986;-121.936;2023-03-14T05:42:20;4.57;;;1.20;;
22332;SDS011;11334;36.986;-121.936;2023-03-14T05:44:47;3.25;;;1.05;;
22332;SDS011;11334;36.986;-121.936;2023-03-14T05:47:13;3.88;;;0.73;;
22332;SDS011;11334;36.986;-121.936;2023-03-14T05:49:39;2.97;;;0.70;;
22332;SDS011;11334;36.986;-121.936;2023-03-14T05:52:05;5.65;;;0.80;;
22332;SDS011;11334;36.986;-121.936;2023-03-14T05:54:32;5.75;;;1.17;;
22332;SDS011;11334;36.986;-121.936;2023-03-14T05:56:58;3.00;;;0.90;;
22332;SDS011;11334;36.986;-121.936;2023-03-14T05:59:24;4.57;;;1.02;;
22332;SDS011;11334;36.986;-121.936;2023-03-14T06:01:50;3.60;;;1.30;;
22332;SDS011;11334;36.986;-121.936;2023-03-14T06:04:17;7.63;;;1.30;;
22332;SDS011;11334;36.986;-121.936;2023-03-14T06:06:43;6.05;;;1.13;;
22332;SDS011;11334;36.986;-121.936;2023-03-14T06:09:09;4.15;;;1.23;;
22332;SDS011;11334;36.986;-121.936;2023-03-14T06:11:35;4.43;;;1.00;;
22332;SDS011;11334;36.986;-121.936;2023-03-14T06:14:02;4.30;;;1.23;;
22332;SDS011;11334;36.986;-121.936;2023-03-14T06:16:28;5.18;;;1.10;;
22332;SDS011;11334;36.986;-121.936;2023-03-14T06:18:54;4.32;;;1.48;;
22332;SDS011;11334;36.986;-121.936;2023-03-14T06:21:21;6.43;;;1.27;;
22332;SDS011;11334;36.986;-121.936;2023-03-14T06:23:47;5.78;;;1.05;;
22332;SDS011;11334;36.986;-121.936;2023-03-14T06:26:13;5.90;;;1.50;;
22332;SDS011;11334;36.986;-121.936;2023-03-14T06:28:39;4.60;;;1.00;;
22332;SDS011;11334;36.986;-121.936;2023-03-14T06:31:06;6.20;;;0.93;;
22332;SDS011;11334;36.986;-121.936;2023-03-14T06:33:32;4.97;;;1.20;;
22332;SDS011;11334;36.986;-121.936;2023-03-14T06:35:58;7.50;;;1.13;;
22332;SDS011;11334;36.986;-121.936;2023-03-14T06:38:25;7.57;;;1.20;;
22332;SDS011;11334;36.986;-121.936;2023-03-14T06:40:51;6.10;;;1.48;;
22332;SDS011;11334;36.986;-121.936;2023-03-14T06:43:17;10.40;;;1.58;;
22332;SDS011;11334;36.986;-121.936;2023-03-14T06:45:44;3.50;;;1.13;;
22332;SDS011;11334;36.986;-121.936;2023-03-14T06:48:10;3.53;;;1.27;;
22332;SDS011;11334;36.986;-121.936;2023-03-14T06:50:36;4.35;;;1.25;;
22332;SDS011;11334;36.986;-121.936;2023-03-14T06:53:03;9.45;;;1.67;;
22332;SDS011;11334;36.986;-121.936;2023-03-14T06:55:30;7.18;;;1.55;;
22332;SDS011;11334;36.986;-121.936;2023-03-14T06:57:56;6.85;;;1.23;;
22332;SDS011;11334;36.986;-121.936;2023-03-14T07:00:22;5.57;;;1.55;;
22332;SDS011;11334;36.986;-121.936;2023-03-14T07:02:48;3.22;;;1.45;;
22332;SDS011;11334;36.986;-121.936;2023-03-14T07:05:15;8.20;;;2.30;;
22332;SDS011;11334;36.986;-121.936;2023-03-14T07:07:41;7.22;;;1.63;;
22332;SDS011;11334;36.986;-121.936;2023-03-14T07:10:07;5.15;;;1.13;;
22332;SDS011;11334;36.986;-121.936;2023-03-14T07:12:34;6.32;;;1.85;;
22332;SDS011;11334;36.986;-121.936;2023-03-14T07:15:00;4.30;;;1.45;;
22332;SDS011;11334;36.986;-121.936;2023-03-14T07:17:27;4.88;;;1.27;;
22332;SDS011;11334;36.986;-121.936;2023-03-14T07:19:53;7.45;;;1.85;;
22332;SDS011;11334;36.986;-121.936;2023-03-14T07:22:19;11.25;;;2.03;;
22332;SDS011;11334;36.986;-121.936;2023-03-14T07:24:45;7.10;;;1.58;;
22332;SDS011;11334;36.986;-121.936;2023-03-14T07:27:12;8.98;;;1.83;;
22332;SDS011;11334;36.986;-121.936;2023-03-14T07:29:38;5.20;;;1.50;;
22332;SDS011;11334;36.986;-121.936;2023-03-14T07:32:04;11.23;;;2.25;;
22332;SDS011;11334;36.986;-121.936;2023-03-14T07:34:30;11.45;;;1.77;;
22332;SDS011;11334;36.986;-121.936;2023-03-14T07:36:57;6.75;;;1.50;;
22332;SDS011;11334;36.986;-121.936;2023-03-14T07:39:23;5.85;;;1.40;;
22332;SDS011;11334;36.986;-121.936;2023-03-14T07:41:49;6.65;;;1.15;;
22332;SDS011;11334;36.986;-121.936;2023-03-14T07:44:16;14.52;;;1.80;;
22332;SDS011;11334;36.986;-121.936;2023-03-14T07:46:42;8.55;;;1.40;;
22332;SDS011;11334;36.986;-121.936;2023-03-14T07:49:08;4.75;;;1.88;;
22332;SDS011;11334;36.986;-121.936;2023-03-14T07:51:34;5.00;;;2.10;;
22332;SDS011;11334;36.986;-121.936;2023-03-14T07:54:01;3.63;;;2.10;;
22332;SDS011;11334;36.986;-121.936;2023-03-14T07:56:27;8.90;;;2.53;;
22332;SDS011;11334;36.986;-121.936;2023-03-14T07:58:53;4.53;;;1.95;;
22332;SDS011;11334;36.986;-121.936;2023-03-14T08:01:19;6.18;;;1.95;;
22332;SDS011;11334;36.986;-121.936;2023-03-14T08:03:46;7.30;;;1.80;;
22332;SDS011;11334;36.986;-121.936;2023-03-14T08:06:12;8.85;;;2.03;;
22332;SDS011;11334;36.986;-121.936;2023-03-14T08:08:38;8.50;;;1.90;;
22332;SDS011;11334;36.986;-121.936;2023-03-14T08:11:05;7.20;;;1.30;;
22332;SDS011;11334;36.986;-121.936;2023-03-14T08:13:36;8.57;;;1.33;;
22332;SDS011;11334;36.986;-121.936;2023-03-14T08:16:03;4.80;;;1.45;;
22332;SDS011;11334;36.986;-121.936;2023-03-14T08:18:30;4.68;;;1.48;;
22332;SDS011;11334;36.986;-121.936;2023-03-14T08:20:56;6.75;;;1.60;;
22332;SDS011;11334;36.986;-121.936;2023-03-14T08:23:23;4.22;;;1.52;;
22332;SDS011;11334;36.986;-121.936;2023-03-14T08:25:49;7.80;;;1.20;;
22332;SDS011;11334;36.986;-121.936;2023-03-14T08:28:16;6.45;;;1.50;;
22332;SDS011;11334;36.986;-121.936;2023-03-14T08:30:43;4.40;;;1.40;;
22332;SDS011;11334;36.986;-121.936;2023-03-14T08:33:10;8.10;;;1.90;;
22332;SDS011;11334;36.986;-121.936;2023-03-14T08:35:37;5.32;;;1.63;;
22332;SDS011;11334;36.986;-121.936;2023-03-14T08:38:03;5.07;;;1.45;;
22332;SDS011;11334;36.986;-121.936;2023-03-14T08:40:29;11.65;;;2.08;;
22332;SDS011;11334;36.986;-121.936;2023-03-14T08:42:55;7.75;;;1.70;;
22332;SDS011;11334;36.986;-121.936;2023-03-14T08:45:22;3.13;;;1.20;;
22332;SDS011;11334;36.986;-121.936;2023-03-14T08:47:50;7.15;;;1.63;;
22332;SDS011;11334;36.986;-121.936;2023-03-14T08:50:16;6.82;;;1.80;;
22332;SDS011;11334;36.986;-121.936;2023-03-14T08:52:43;5.00;;;1.42;;
22332;SDS011;11334;36.986;-121.936;2023-03-14T08:55:09;8.23;;;1.95;;
22332;SDS011;11334;36.986;-121.936;2023-03-14T08:57:35;5.47;;;1.90;;
22332;SDS011;11334;36.986;-121.936;2023-03-14T09:00:02;4.45;;;2.08;;
22332;SDS011;11334;36.986;-121.936;2023-03-14T09:02:35;6.15;;;1.40;;
22332;SDS011;11334;36.986;-121.936;2023-03-14T09:05:01;4.97;;;1.77;;
22332;SDS011;11334;36.986;-121.936;2023-03-14T09:07:27;4.72;;;1.42;;
22332;SDS011;11334;36.986;-121.936;2023-03-14T09:09:54;6.45;;;1.27;;
22332;SDS011;11334;36.986;-121.936;2023-03-14T09:12:20;5.22;;;1.25;;
22332;SDS011;11334;36.986;-121.936;2023-03-14T09:14:46;6.25;;;1.70;;
22332;SDS011;11334;36.986;-121.936;2023-03-14T09:17:12;10.60;;;1.55;;
22332;SDS011;11334;36.986;-121.936;2023-03-14T09:19:38;7.25;;;1.92;;
22332;SDS011;11334;36.986;-121.936;2023-03-14T09:22:05;10.15;;;1.65;;
22332;SDS011;11334;36.986;-121.936;2023-03-14T09:24:31;3.63;;;1.27;;
22332;SDS011;11334;36.986;-121.936;2023-03-14T09:26:57;7.55;;;1.42;;
22332;SDS011;11334;36.986;-121.936;2023-03-14T09:29:23;6.38;;;1.45;;
22332;SDS011;11334;36.986;-121.936;2023-03-14T09:31:50;6.40;;;1.60;;
22332;SDS011;11334;36.986;-121.936;2023-03-14T09:34:16;12.10;;;2.22;;
22332;SDS011;11334;36.986;-121.936;2023-03-14T09:36:42;5.70;;;1.45;;
22332;SDS011;11334;36.986;-121.936;2023-03-14T09:39:10;3.13;;;1.10;;
22332;SDS011;11334;36.986;-121.936;2023-03-14T09:41:41;4.47;;;1.42;;
22332;SDS011;11334;36.986;-121.936;2023-03-14T09:44:15;6.80;;;1.65;;
22332;SDS011;11334;36.986;-121.936;2023-03-14T09:46:48;6.05;;;1.40;;
22332;SDS011;11334;36.986;-121.936;2023-03-14T09:49:21;3.53;;;1.17;;
22332;SDS011;11334;36.986;-121.936;2023-03-14T09:51:54;6.57;;;1.52;;
22332;SDS011;11334;36.986;-121.936;2023-03-14T09:54:33;3.05;;;1.13;;
22332;SDS011;11334;36.986;-121.936;2023-03-14T09:57:09;7.72;;;1.45;;
22332;SDS011;11334;36.986;-121.936;2023-03-14T09:59:39;5.32;;;1.08;;
22332;SDS011;11334;36.986;-121.936;2023-03-14T10:02:26;5.47;;;1.75;;
22332;SDS011;11334;36.986;-121.936;2023-03-14T10:04:59;2.20;;;1.02;;
22332;SDS011;11334;36.986;-121.936;2023-03-14T10:07:30;6.88;;;1.30;;
22332;SDS011;11334;36.986;-121.936;2023-03-14T10:09:57;3.53;;;1.00;;
22332;SDS011;11334;36.986;-121.936;2023-03-14T10:12:35;5.50;;;1.67;;
22332;SDS011;11334;36.986;-121.936;2023-03-14T10:15:04;7.60;;;1.70;;
22332;SDS011;11334;36.986;-121.936;2023-03-14T10:17:38;4.63;;;1.13;;
22332;SDS011;11334;36.986;-121.936;2023-03-14T10:20:06;1.88;;;0.90;;
22332;SDS011;11334;36.986;-121.936;2023-03-14T10:22:52;7.47;;;1.60;;
22332;SDS011;11334;36.986;-121.936;2023-03-14T10:25:29;4.10;;;1.35;;
22332;SDS011;11334;36.986;-121.936;2023-03-14T10:27:58;6.72;;;1.33;;
22332;SDS011;11334;36.986;-121.936;2023-03-14T10:35:53;5.18;;;1.63;;
22332;SDS011;11334;36.986;-121.936;2023-03-14T10:38:22;3.90;;;1.30;;
22332;SDS011;11334;36.986;-121.936;2023-03-14T10:40:51;4.97;;;1.73;;
22332;SDS011;11334;36.986;-121.936;2023-03-14T10:43:20;5.43;;;1.50;;
22332;SDS011;11334;36.986;-121.936;2023-03-14T10:45:54;4.68;;;1.27;;
22332;SDS011;11334;36.986;-121.936;2023-03-14T10:48:29;6.63;;;1.42;;
22332;SDS011;11334;36.986;-121.936;2023-03-14T10:51:03;6.47;;;1.50;;
22332;SDS011;11334;36.986;-121.936;2023-03-14T10:53:39;4.43;;;1.55;;
22332;SDS011;11334;36.986;-121.936;2023-03-14T10:56:11;4.72;;;1.55;;
22332;SDS011;11334;36.986;-121.936;2023-03-14T10:58:40;7.28;;;1.80;;
22332;SDS011;11334;36.986;-121.936;2023-03-14T11:12:19;5.75;;;1.50;;
22332;SDS011;11334;36.986;-121.936;2023-03-14T11:15:19;7.22;;;1.65;;
22332;SDS011;11334;36.986;-121.936;2023-03-14T11:23:32;6.00;;;1.13;;
22332;SDS011;11334;36.986;-121.936;2023-03-14T11:32:01;8.25;;;1.75;;
22332;SDS011;11334;36.986;-121.936;2023-03-14T11:34:40;4.07;;;1.20;;
22332;SDS011;11334;36.986;-121.936;2023-03-14T11:37:21;5.32;;;1.50;;
22332;SDS011;11334;36.986;-121.936;2023-03-14T11:42:40;4.88;;;1.35;;
22332;SDS011;11334;36.986;-121.936;2023-03-14T11:45:22;1.48;;;0.88;;
22332;SDS011;11334;36.986;-121.936;2023-03-14T11:48:42;4.95;;;1.52;;
22332;SDS011;11334;36.986;-121.936;2023-03-14T11:51:02;8.57;;;2.00;;
22332;SDS011;11334;36.986;-121.936;2023-03-14T11:53:39;7.40;;;2.22;;
22332;SDS011;11334;36.986;-121.936;2023-03-14T11:56:39;7.05;;;2.22;;
22332;SDS011;11334;36.986;-121.936;2023-03-14T12:02:13;12.02;;;3.17;;
22332;SDS011;11334;36.986;-121.936;2023-03-14T12:04:57;6.68;;;2.65;;
22332;SDS011;11334;36.986;-121.936;2023-03-14T12:11:29;11.38;;;2.38;;
22332;SDS011;11334;36.986;-121.936;2023-03-14T12:14:01;12.02;;;2.50;;
22332;SDS011;11334;36.986;-121.936;2023-03-14T12:16:33;12.73;;;2.90;;
22332;SDS011;11334;36.986;-121.936;2023-03-14T12:24:37;11.20;;;2.63;;
22332;SDS011;11334;36.986;-121.936;2023-03-14T12:27:10;12.20;;;3.63;;
22332;SDS011;11334;36.986;-121.936;2023-03-14T12:35:43;7.13;;;1.83;;
22332;SDS011;11334;36.986;-121.936;2023-03-14T12:38:18;2.38;;;1.10;;
22332;SDS011;11334;36.986;-121.936;2023-03-14T12:43:37;3.30;;;0.80;;
22332;SDS011;11334;36.986;-121.936;2023-03-14T12:46:21;2.22;;;0.70;;
22332;SDS011;11334;36.986;-121.936;2023-03-14T12:48:49;3.17;;;0.70;;
22332;SDS011;11334;36.986;-121.936;2023-03-14T12:54:06;3.67;;;1.20;;
22332;SDS011;11334;36.986;-121.936;2023-03-14T12:59:47;5.20;;;2.15;;
22332;SDS011;11334;36.986;-121.936;2023-03-14T13:04:50;8.88;;;2.17;;
22332;SDS011;11334;36.986;-121.936;2023-03-14T13:07:33;11.50;;;2.92;;
22332;SDS011;11334;36.986;-121.936;2023-03-14T13:10:03;11.40;;;2.65;;
22332;SDS011;11334;36.986;-121.936;2023-03-14T13:12:45;7.43;;;2.35;;
22332;SDS011;11334;36.986;-121.936;2023-03-14T13:17:53;3.60;;;1.27;;
22332;SDS011;11334;36.986;-121.936;2023-03-14T13:20:27;7.68;;;2.05;;
22332;SDS011;11334;36.986;-121.936;2023-03-14T13:22:59;5.68;;;1.33;;
22332;SDS011;11334;36.986;-121.936;2023-03-14T13:25:29;4.68;;;1.30;;
22332;SDS011;11334;36.986;-121.936;2023-03-14T13:27:58;2.63;;;1.40;;
22332;SDS011;11334;36.986;-121.936;2023-03-14T13:30:28;6.53;;;1.65;;
22332;SDS011;11334;36.986;-121.936;2023-03-14T13:33:04;8.73;;;2.17;;
22332;SDS011;11334;36.986;-121.936;2023-03-14T13:35:38;10.73;;;2.78;;
22332;SDS011;11334;36.986;-121.936;2023-03-14T13:38:21;8.98;;;2.72;;
22332;SDS011;11334;36.986;-121.936;2023-03-14T13:40:49;9.52;;;2.67;;
22332;SDS011;11334;36.986;-121.936;2023-03-14T13:43:20;10.10;;;2.47;;
22332;SDS011;11334;36.986;-121.936;2023-03-14T13:45:52;11.02;;;2.33;;
22332;SDS011;11334;36.986;-121.936;2023-03-14T13:48:18;7.53;;;2.55;;
22332;SDS011;11334;36.986;-121.936;2023-03-14T13:50:49;12.32;;;2.53;;
22332;SDS011;11334;36.986;-121.936;2023-03-14T13:53:19;12.18;;;2.75;;
22332;SDS011;11334;36.986;-121.936;2023-03-14T13:55:45;11.65;;;2.72;;
22332;SDS011;11334;36.986;-121.936;2023-03-14T13:58:18;13.45;;;2.65;;
22332;SDS011;11334;36.986;-121.936;2023-03-14T14:00:59;11.63;;;2.55;;
22332;SDS011;11334;36.986;-121.936;2023-03-14T14:03:27;9.90;;;3.05;;
22332;SDS011;11334;36.986;-121.936;2023-03-14T14:05:55;11.45;;;2.72;;
22332;SDS011;11334;36.986;-121.936;2023-03-14T14:08:23;8.02;;;2.20;;
22332;SDS011;11334;36.986;-121.936;2023-03-14T14:10:50;9.15;;;2.00;;
22332;SDS011;11334;36.986;-121.936;2023-03-14T14:13:24;6.05;;;1.77;;
22332;SDS011;11334;36.986;-121.936;2023-03-14T14:15:52;5.13;;;1.45;;
22332;SDS011;11334;36.986;-121.936;2023-03-14T14:18:22;4.70;;;1.40;;
22332;SDS011;11334;36.986;-121.936;2023-03-14T14:20:52;5.65;;;1.20;;
22332;SDS011;11334;36.986;-121.936;2023-03-14T14:23:20;10.05;;;1.85;;
22332;SDS011;11334;36.986;-121.936;2023-03-14T14:25:54;8.18;;;1.70;;
22332;SDS011;11334;36.986;-121.936;2023-03-14T14:28:28;7.47;;;1.85;;
22332;SDS011;11334;36.986;-121.936;2023-03-14T14:31:43;7.20;;;2.20;;
22332;SDS011;11334;36.986;-121.936;2023-03-14T14:36:21;7.55;;;1.50;;
22332;SDS011;11334;36.986;-121.936;2023-03-14T14:38:51;4.90;;;1.15;;
22332;SDS011;11334;36.986;-121.936;2023-03-14T14:41:22;4.78;;;1.10;;
22332;SDS011;11334;36.986;-121.936;2023-03-14T14:43:53;3.92;;;1.10;;
22332;SDS011;11334;36.986;-121.936;2023-03-14T14:46:20;3.17;;;1.08;;
22332;SDS011;11334;36.986;-121.936;2023-03-14T14:48:47;6.70;;;1.63;;
22332;SDS011;11334;36.986;-121.936;2023-03-14T14:51:27;7.15;;;2.15;;
22332;SDS011;11334;36.986;-121.936;2023-03-14T14:54:01;8.13;;;1.65;;
22332;SDS011;11334;36.986;-121.936;2023-03-14T14:56:36;7.88;;;1.50;;
22332;SDS011;11334;36.986;-121.936;2023-03-14T14:59:04;1.98;;;1.00;;
22332;SDS011;11334;36.986;-121.936;2023-03-14T15:01:36;3.83;;;1.23;;
22332;SDS011;11334;36.986;-121.936;2023-03-14T15:04:11;5.95;;;1.80;;
22332;SDS011;11334;36.986;-121.936;2023-03-14T15:06:43;5.57;;;1.20;;
22332;SDS011;11334;36.986;-121.936;2023-03-14T15:09:12;2.17;;;0.70;;
22332;SDS011;11334;36.986;-121.936;2023-03-14T15:11:38;3.42;;;0.47;;
22332;SDS011;11334;36.986;-121.936;2023-03-14T15:14:04;2.83;;;0.20;;
22332;SDS011;11334;36.986;-121.936;2023-03-14T15:16:32;1.90;;;0.40;;
22332;SDS011;11334;36.986;-121.936;2023-03-14T15:18:59;0.52;;;0.40;;
22332;SDS011;11334;36.986;-121.936;2023-03-14T15:21:28;0.73;;;0.22;;
22332;SDS011;11334;36.986;-121.936;2023-03-14T15:23:54;1.70;;;0.32;;
22332;SDS011;11334;36.986;-121.936;2023-03-14T15:26:21;0.70;;;0.38;;
22332;SDS011;11334;36.986;-121.936;2023-03-14T15:28:52;2.30;;;0.35;;
22332;SDS011;11334;36.986;-121.936;2023-03-14T15:31:19;0.20;;;0.20;;
22332;SDS011;11334;36.986;-121.936;2023-03-14T15:33:46;1.50;;;0.25;;
22332;SDS011;11334;36.986;-121.936;2023-03-14T15:36:16;2.38;;;0.52;;